createdAt,value
2016-06-24T13:24:25.636Z,1009.6
2016-06-24T13:25:25.017Z,1009.66
2016-06-24T13:26:25.005Z,1009.65
2016-06-24T13:27:25.047Z,1009.64
2016-06-24T13:28:24.964Z,1009.62
2016-06-24T13:29:25.033Z,1009.61
2016-06-24T13:30:24.933Z,1009.59
2016-06-24T13:31:24.922Z,1009.59
2016-06-24T13:32:24.906Z,1009.59
2016-06-24T13:33:24.979Z,1009.55
2016-06-24T13:34:24.859Z,1009.53
2016-06-24T13:35:24.970Z,1009.53
2016-06-24T13:36:24.836Z,1009.53
2016-06-24T13:37:24.803Z,1009.52
2016-06-24T13:38:24.794Z,1009.49
2016-06-24T13:39:24.785Z,1009.51
2016-06-24T13:40:24.815Z,1009.54
2016-06-24T13:41:24.748Z,1009.52
2016-06-24T13:42:24.732Z,1009.52
2016-06-24T13:43:25.064Z,1009.54
2016-06-24T13:44:24.688Z,1009.53
2016-06-24T13:45:24.727Z,1009.5
2016-06-24T13:46:24.667Z,1009.47
2016-06-24T13:47:24.652Z,1009.45
2016-06-24T13:48:24.640Z,1009.46
2016-06-24T13:49:24.609Z,1009.45
2016-06-24T13:50:24.577Z,1009.4
2016-06-24T13:51:24.910Z,1009.39
2016-06-24T13:52:24.556Z,1009.37
2016-06-24T13:53:24.568Z,1009.34
2016-06-24T13:54:24.515Z,1009.36
2016-06-24T13:55:24.503Z,1009.28
2016-06-24T13:56:24.506Z,1009.35
2016-06-24T13:57:24.475Z,1009.41
2016-06-24T13:58:24.454Z,1009.43
2016-06-24T13:59:24.430Z,1009.41
2016-06-24T14:00:24.468Z,1009.42
2016-06-24T14:01:24.403Z,1009.45
2016-06-24T14:02:24.381Z,1009.44
2016-06-24T14:03:24.399Z,1009.43
2016-06-24T14:04:24.349Z,1009.43
2016-06-24T14:05:24.344Z,1009.37
2016-06-24T14:06:24.335Z,1009.4
2016-06-24T14:07:24.428Z,1009.37
2016-06-24T14:08:24.489Z,1009.36
2016-06-24T14:09:24.353Z,1009.37
2016-06-24T14:10:24.255Z,1009.35
2016-06-24T14:11:24.237Z,1009.28
2016-06-24T14:12:24.201Z,1009.3
2016-06-24T14:13:24.203Z,1009.3
2016-06-24T14:14:24.266Z,1009.29
2016-06-24T14:15:24.523Z,1009.26
2016-06-24T14:16:24.140Z,1009.24
2016-06-24T14:17:24.144Z,1009.25
2016-06-24T14:18:24.149Z,1009.24
2016-06-24T14:19:24.102Z,1009.23
2016-06-24T14:20:24.095Z,1009.2
2016-06-24T14:21:24.053Z,1009.22
2016-06-24T14:22:24.047Z,1009.17
2016-06-24T14:23:24.050Z,1009.19
2016-06-24T14:24:24.014Z,1009.17
2016-06-24T14:25:23.991Z,1009.13
2016-06-24T14:26:23.977Z,1009.14
2016-06-24T14:27:23.961Z,1009.13
2016-06-24T14:28:23.937Z,1009.14
2016-06-24T14:29:24.010Z,1009.18
2016-06-24T14:30:23.904Z,1009.15
2016-06-24T14:31:23.890Z,1009.1
2016-06-24T14:32:24.338Z,1009.14
2016-06-24T14:33:23.874Z,1009.13
2016-06-24T14:34:23.836Z,1009.11
2016-06-24T14:35:23.854Z,1009.15
2016-06-24T14:36:23.800Z,1009.13
2016-06-24T14:37:23.776Z,1009.07
2016-06-24T14:38:23.766Z,1009.04
2016-06-24T14:39:23.777Z,1009.02
